sensor_id;sensor_type;location;lat;lon;timestamp;P1;durP1;ratioP1;P2;durP2;ratioP2
71558;SDS011;59382;43.852;25.952;2024-03-07T00:02:14;15.40;;;6.22;;
71558;SDS011;59382;43.852;25.952;2024-03-07T00:04:42;8.30;;;5.05;;
71558;SDS011;59382;43.852;25.952;2024-03-07T00:07:08;8.80;;;5.60;;
71558;SDS011;59382;43.852;25.952;2024-03-07T00:09:34;13.18;;;5.07;;
71558;SDS011;59382;43.852;25.952;2024-03-07T00:12:00;9.70;;;5.47;;
71558;SDS011;59382;43.852;25.952;2024-03-07T00:14:33;9.48;;;5.25;;
71558;SDS011;59382;43.852;25.952;2024-03-07T00:17:00;8.57;;;4.80;;
71558;SDS011;59382;43.852;25.952;2024-03-07T00:19:28;14.30;;;6.15;;
71558;SDS011;59382;43.852;25.952;2024-03-07T00:21:58;9.60;;;5.80;;
71558;SDS011;59382;43.852;25.952;2024-03-07T00:24:24;14.68;;;5.38;;
71558;SDS011;59382;43.852;25.952;2024-03-07T00:26:52;14.57;;;6.45;;
71558;SDS011;59382;43.852;25.952;2024-03-07T00:29:18;11.63;;;4.90;;
71558;SDS011;59382;43.852;25.952;2024-03-07T00:31:47;9.27;;;5.88;;
71558;SDS011;59382;43.852;25.952;2024-03-07T00:34:13;11.32;;;5.80;;
71558;SDS011;59382;43.852;25.952;2024-03-07T00:36:42;7.97;;;5.10;;
71558;SDS011;59382;43.852;25.952;2024-03-07T00:39:08;10.07;;;5.22;;
71558;SDS011;59382;43.852;25.952;2024-03-07T00:41:33;9.55;;;5.80;;
71558;SDS011;59382;43.852;25.952;2024-03-07T00:43:59;10.63;;;4.60;;
71558;SDS011;59382;43.852;25.952;2024-03-07T00:46:25;12.65;;;6.00;;
71558;SDS011;59382;43.852;25.952;2024-03-07T00:48:50;10.02;;;5.47;;
71558;SDS011;59382;43.852;25.952;2024-03-07T00:51:16;9.82;;;4.97;;
71558;SDS011;59382;43.852;25.952;2024-03-07T00:53:41;9.98;;;5.47;;
71558;SDS011;59382;43.852;25.952;2024-03-07T00:56:07;12.38;;;5.38;;
71558;SDS011;59382;43.852;25.952;2024-03-07T00:58:32;10.00;;;5.57;;
71558;SDS011;59382;43.852;25.952;2024-03-07T01:00:57;12.82;;;5.07;;
71558;SDS011;59382;43.852;25.952;2024-03-07T01:03:23;9.50;;;5.70;;
71558;SDS011;59382;43.852;25.952;2024-03-07T01:05:49;10.80;;;5.53;;
71558;SDS011;59382;43.852;25.952;2024-03-07T01:08:14;6.55;;;4.82;;
71558;SDS011;59382;43.852;25.952;2024-03-07T01:10:40;14.00;;;6.15;;
71558;SDS011;59382;43.852;25.952;2024-03-07T01:13:06;9.25;;;5.40;;
71558;SDS011;59382;43.852;25.952;2024-03-07T01:15:34;13.68;;;6.72;;
71558;SDS011;59382;43.852;25.952;2024-03-07T01:17:59;10.52;;;5.53;;
71558;SDS011;59382;43.852;25.952;2024-03-07T01:20:25;12.85;;;5.82;;
71558;SDS011;59382;43.852;25.952;2024-03-07T01:22:53;14.20;;;5.32;;
71558;SDS011;59382;43.852;25.952;2024-03-07T01:25:19;18.13;;;6.50;;
71558;SDS011;59382;43.852;25.952;2024-03-07T01:27:46;10.65;;;5.28;;
71558;SDS011;59382;43.852;25.952;2024-03-07T01:30:12;14.20;;;5.13;;
71558;SDS011;59382;43.852;25.952;2024-03-07T01:32:38;14.63;;;6.05;;
71558;SDS011;59382;43.852;25.952;2024-03-07T01:35:04;10.40;;;5.68;;
71558;SDS011;59382;43.852;25.952;2024-03-07T01:37:32;10.95;;;5.55;;
71558;SDS011;59382;43.852;25.952;2024-03-07T01:39:58;11.55;;;5.65;;
71558;SDS011;59382;43.852;25.952;2024-03-07T01:42:23;9.23;;;5.10;;
71558;SDS011;59382;43.852;25.952;2024-03-07T01:44:50;10.07;;;6.03;;
71558;SDS011;59382;43.852;25.952;2024-03-07T01:47:17;6.43;;;4.57;;
71558;SDS011;59382;43.852;25.952;2024-03-07T01:49:43;14.80;;;5.18;;
71558;SDS011;59382;43.852;25.952;2024-03-07T01:52:08;12.23;;;5.95;;
71558;SDS011;59382;43.852;25.952;2024-03-07T01:54:36;10.82;;;5.68;;
71558;SDS011;59382;43.852;25.952;2024-03-07T01:57:02;12.73;;;4.93;;
71558;SDS011;59382;43.852;25.952;2024-03-07T01:59:28;17.02;;;4.95;;
71558;SDS011;59382;43.852;25.952;2024-03-07T02:01:55;11.43;;;5.65;;
71558;SDS011;59382;43.852;25.952;2024-03-07T02:04:22;9.10;;;5.07;;
71558;SDS011;59382;43.852;25.952;2024-03-07T02:06:49;9.27;;;4.68;;
71558;SDS011;59382;43.852;25.952;2024-03-07T02:09:15;11.63;;;5.90;;
71558;SDS011;59382;43.852;25.952;2024-03-07T02:11:42;15.55;;;5.78;;
71558;SDS011;59382;43.852;25.952;2024-03-07T02:14:08;11.63;;;5.22;;
71558;SDS011;59382;43.852;25.952;2024-03-07T02:16:33;14.95;;;5.30;;
71558;SDS011;59382;43.852;25.952;2024-03-07T02:18:59;8.07;;;5.47;;
71558;SDS011;59382;43.852;25.952;2024-03-07T02:21:25;12.30;;;5.53;;
71558;SDS011;59382;43.852;25.952;2024-03-07T02:23:50;9.98;;;4.65;;
71558;SDS011;59382;43.852;25.952;2024-03-07T02:26:16;13.82;;;6.80;;
71558;SDS011;59382;43.852;25.952;2024-03-07T02:28:42;9.18;;;6.10;;
71558;SDS011;59382;43.852;25.952;2024-03-07T02:31:07;12.73;;;6.53;;
71558;SDS011;59382;43.852;25.952;2024-03-07T02:33:33;12.63;;;6.60;;
71558;SDS011;59382;43.852;25.952;2024-03-07T02:35:58;17.63;;;5.78;;
71558;SDS011;59382;43.852;25.952;2024-03-07T02:38:24;15.60;;;7.25;;
71558;SDS011;59382;43.852;25.952;2024-03-07T02:40:49;12.48;;;6.88;;
71558;SDS011;59382;43.852;25.952;2024-03-07T02:43:15;15.20;;;8.38;;
71558;SDS011;59382;43.852;25.952;2024-03-07T02:45:41;16.63;;;7.60;;
71558;SDS011;59382;43.852;25.952;2024-03-07T02:48:09;17.63;;;6.95;;
71558;SDS011;59382;43.852;25.952;2024-03-07T02:50:35;18.45;;;8.27;;
71558;SDS011;59382;43.852;25.952;2024-03-07T02:53:04;12.02;;;6.68;;
71558;SDS011;59382;43.852;25.952;2024-03-07T02:55:30;13.23;;;6.80;;
71558;SDS011;59382;43.852;25.952;2024-03-07T02:57:59;12.27;;;7.68;;
71558;SDS011;59382;43.852;25.952;2024-03-07T03:00:25;14.10;;;6.60;;
71558;SDS011;59382;43.852;25.952;2024-03-07T03:02:57;12.05;;;6.63;;
71558;SDS011;59382;43.852;25.952;2024-03-07T03:05:23;11.57;;;7.20;;
71558;SDS011;59382;43.852;25.952;2024-03-07T03:07:49;16.15;;;6.53;;
71558;SDS011;59382;43.852;25.952;2024-03-07T03:10:25;15.10;;;7.05;;
71558;SDS011;59382;43.852;25.952;2024-03-07T03:12:54;12.60;;;6.45;;
71558;SDS011;59382;43.852;25.952;2024-03-07T03:15:21;15.95;;;7.47;;
71558;SDS011;59382;43.852;25.952;2024-03-07T03:17:47;14.80;;;7.57;;
71558;SDS011;59382;43.852;25.952;2024-03-07T03:20:13;11.55;;;6.30;;
71558;SDS011;59382;43.852;25.952;2024-03-07T03:22:54;13.40;;;7.18;;
71558;SDS011;59382;43.852;25.952;2024-03-07T03:25:20;12.73;;;6.63;;
71558;SDS011;59382;43.852;25.952;2024-03-07T03:27:49;12.48;;;6.95;;
71558;SDS011;59382;43.852;25.952;2024-03-07T03:30:15;11.57;;;7.18;;
71558;SDS011;59382;43.852;25.952;2024-03-07T03:32:44;12.35;;;6.00;;
71558;SDS011;59382;43.852;25.952;2024-03-07T03:35:10;14.52;;;7.38;;
71558;SDS011;59382;43.852;25.952;2024-03-07T03:37:44;12.95;;;7.28;;
71558;SDS011;59382;43.852;25.952;2024-03-07T03:40:10;9.27;;;5.15;;
71558;SDS011;59382;43.852;25.952;2024-03-07T03:42:37;14.13;;;6.75;;
71558;SDS011;59382;43.852;25.952;2024-03-07T03:45:06;12.85;;;6.90;;
71558;SDS011;59382;43.852;25.952;2024-03-07T03:47:36;12.10;;;6.75;;
71558;SDS011;59382;43.852;25.952;2024-03-07T03:50:06;13.88;;;6.25;;
71558;SDS011;59382;43.852;25.952;2024-03-07T03:52:32;12.52;;;6.50;;
71558;SDS011;59382;43.852;25.952;2024-03-07T03:55:00;11.63;;;6.13;;
71558;SDS011;59382;43.852;25.952;2024-03-07T03:57:28;14.77;;;6.75;;
71558;SDS011;59382;43.852;25.952;2024-03-07T03:59:56;11.13;;;6.05;;
71558;SDS011;59382;43.852;25.952;2024-03-07T04:02:22;15.15;;;6.72;;
71558;SDS011;59382;43.852;25.952;2024-03-07T04:04:48;10.15;;;6.43;;
71558;SDS011;59382;43.852;25.952;2024-03-07T04:07:14;17.85;;;7.00;;
71558;SDS011;59382;43.852;25.952;2024-03-07T04:09:41;10.13;;;6.13;;
71558;SDS011;59382;43.852;25.952;2024-03-07T04:12:07;14.00;;;6.45;;
71558;SDS011;59382;43.852;25.952;2024-03-07T04:14:36;13.75;;;7.22;;
71558;SDS011;59382;43.852;25.952;2024-03-07T04:17:02;13.45;;;7.22;;
71558;SDS011;59382;43.852;25.952;2024-03-07T04:19:28;15.25;;;7.18;;
71558;SDS011;59382;43.852;25.952;2024-03-07T04:21:56;13.18;;;6.25;;
71558;SDS011;59382;43.852;25.952;2024-03-07T04:24:21;15.32;;;6.25;;
71558;SDS011;59382;43.852;25.952;2024-03-07T04:26:47;12.23;;;6.95;;
71558;SDS011;59382;43.852;25.952;2024-03-07T04:29:12;13.93;;;6.45;;
71558;SDS011;59382;43.852;25.952;2024-03-07T04:31:38;12.68;;;6.70;;
71558;SDS011;59382;43.852;25.952;2024-03-07T04:34:03;14.60;;;8.20;;
71558;SDS011;59382;43.852;25.952;2024-03-07T04:36:29;14.63;;;6.90;;
71558;SDS011;59382;43.852;25.952;2024-03-07T04:38:55;18.83;;;7.60;;
71558;SDS011;59382;43.852;25.952;2024-03-07T04:41:20;16.08;;;7.65;;
71558;SDS011;59382;43.852;25.952;2024-03-07T04:43:46;13.68;;;6.45;;
71558;SDS011;59382;43.852;25.952;2024-03-07T04:46:11;14.13;;;7.25;;
71558;SDS011;59382;43.852;25.952;2024-03-07T04:48:37;13.75;;;7.22;;
71558;SDS011;59382;43.852;25.952;2024-03-07T04:51:03;15.57;;;7.90;;
71558;SDS011;59382;43.852;25.952;2024-03-07T04:53:28;14.55;;;7.72;;
71558;SDS011;59382;43.852;25.952;2024-03-07T04:55:54;23.65;;;7.20;;
71558;SDS011;59382;43.852;25.952;2024-03-07T04:58:21;15.57;;;7.45;;
71558;SDS011;59382;43.852;25.952;2024-03-07T05:00:47;14.13;;;7.22;;
71558;SDS011;59382;43.852;25.952;2024-03-07T05:03:12;20.50;;;7.75;;
71558;SDS011;59382;43.852;25.952;2024-03-07T05:05:38;21.02;;;7.18;;
71558;SDS011;59382;43.852;25.952;2024-03-07T05:08:03;15.88;;;6.25;;
71558;SDS011;59382;43.852;25.952;2024-03-07T05:10:29;11.25;;;6.75;;
71558;SDS011;59382;43.852;25.952;2024-03-07T05:12:56;14.07;;;6.68;;
71558;SDS011;59382;43.852;25.952;2024-03-07T05:15:24;12.52;;;6.50;;
71558;SDS011;59382;43.852;25.952;2024-03-07T05:17:51;9.63;;;5.93;;
71558;SDS011;59382;43.852;25.952;2024-03-07T05:20:17;13.82;;;6.47;;
71558;SDS011;59382;43.852;25.952;2024-03-07T05:22:43;13.95;;;6.60;;
71558;SDS011;59382;43.852;25.952;2024-03-07T05:25:18;14.00;;;7.20;;
71558;SDS011;59382;43.852;25.952;2024-03-07T05:27:45;15.02;;;8.05;;
71558;SDS011;59382;43.852;25.952;2024-03-07T05:30:11;21.40;;;7.40;;
71558;SDS011;59382;43.852;25.952;2024-03-07T05:32:38;15.57;;;6.93;;
71558;SDS011;59382;43.852;25.952;2024-03-07T05:35:04;15.68;;;7.85;;
71558;SDS011;59382;43.852;25.952;2024-03-07T05:37:31;15.82;;;8.50;;
71558;SDS011;59382;43.852;25.952;2024-03-07T05:39:57;18.55;;;8.00;;
71558;SDS011;59382;43.852;25.952;2024-03-07T05:42:22;15.98;;;7.88;;
71558;SDS011;59382;43.852;25.952;2024-03-07T05:44:50;17.13;;;7.72;;
71558;SDS011;59382;43.852;25.952;2024-03-07T05:47:16;18.67;;;7.57;;
71558;SDS011;59382;43.852;25.952;2024-03-07T05:49:42;14.45;;;7.47;;
71558;SDS011;59382;43.852;25.952;2024-03-07T05:52:07;20.23;;;7.90;;
71558;SDS011;59382;43.852;25.952;2024-03-07T05:54:33;15.57;;;7.45;;
71558;SDS011;59382;43.852;25.952;2024-03-07T05:56:59;17.35;;;7.35;;
71558;SDS011;59382;43.852;25.952;2024-03-07T05:59:25;17.38;;;8.55;;
71558;SDS011;59382;43.852;25.952;2024-03-07T06:01:54;16.90;;;8.57;;
71558;SDS011;59382;43.852;25.952;2024-03-07T06:04:21;16.23;;;7.28;;
71558;SDS011;59382;43.852;25.952;2024-03-07T06:06:47;12.75;;;6.80;;
71558;SDS011;59382;43.852;25.952;2024-03-07T06:09:15;21.77;;;7.95;;
71558;SDS011;59382;43.852;25.952;2024-03-07T06:11:47;13.25;;;7.03;;
71558;SDS011;59382;43.852;25.952;2024-03-07T06:14:14;11.02;;;6.80;;
71558;SDS011;59382;43.852;25.952;2024-03-07T06:16:41;12.60;;;6.47;;
71558;SDS011;59382;43.852;25.952;2024-03-07T06:19:07;12.90;;;5.60;;
71558;SDS011;59382;43.852;25.952;2024-03-07T06:21:34;14.13;;;6.85;;
71558;SDS011;59382;43.852;25.952;2024-03-07T06:24:00;12.40;;;6.55;;
71558;SDS011;59382;43.852;25.952;2024-03-07T06:26:28;15.73;;;6.47;;
71558;SDS011;59382;43.852;25.952;2024-03-07T06:29:25;21.90;;;6.88;;
71558;SDS011;59382;43.852;25.952;2024-03-07T06:31:54;11.55;;;5.80;;
71558;SDS011;59382;43.852;25.952;2024-03-07T06:34:19;18.17;;;7.50;;
71558;SDS011;59382;43.852;25.952;2024-03-07T06:36:45;20.58;;;7.43;;
71558;SDS011;59382;43.852;25.952;2024-03-07T06:39:11;11.90;;;6.82;;
71558;SDS011;59382;43.852;25.952;2024-03-07T06:41:37;12.35;;;6.65;;
71558;SDS011;59382;43.852;25.952;2024-03-07T06:44:03;17.65;;;7.60;;
71558;SDS011;59382;43.852;25.952;2024-03-07T06:46:29;10.02;;;5.97;;
71558;SDS011;59382;43.852;25.952;2024-03-07T06:48:56;11.52;;;6.25;;
71558;SDS011;59382;43.852;25.952;2024-03-07T06:51:22;10.68;;;6.10;;
71558;SDS011;59382;43.852;25.952;2024-03-07T06:53:49;13.05;;;6.20;;
71558;SDS011;59382;43.852;25.952;2024-03-07T06:56:15;13.77;;;6.60;;
71558;SDS011;59382;43.852;25.952;2024-03-07T06:58:41;14.32;;;6.80;;
71558;SDS011;59382;43.852;25.952;2024-03-07T07:01:08;17.55;;;6.80;;
71558;SDS011;59382;43.852;25.952;2024-03-07T07:03:38;12.25;;;6.97;;
71558;SDS011;59382;43.852;25.952;2024-03-07T07:06:04;14.65;;;6.88;;
71558;SDS011;59382;43.852;25.952;2024-03-07T07:08:33;11.65;;;6.80;;
71558;SDS011;59382;43.852;25.952;2024-03-07T07:10:58;13.43;;;5.90;;
71558;SDS011;59382;43.852;25.952;2024-03-07T07:13:24;11.40;;;6.22;;
71558;SDS011;59382;43.852;25.952;2024-03-07T07:15:49;12.95;;;6.30;;
71558;SDS011;59382;43.852;25.952;2024-03-07T07:18:15;11.95;;;6.18;;
71558;SDS011;59382;43.852;25.952;2024-03-07T07:20:41;9.40;;;6.15;;
71558;SDS011;59382;43.852;25.952;2024-03-07T07:23:07;14.05;;;6.47;;
71558;SDS011;59382;43.852;25.952;2024-03-07T07:25:32;12.38;;;6.45;;
71558;SDS011;59382;43.852;25.952;2024-03-07T07:27:58;14.38;;;6.50;;
71558;SDS011;59382;43.852;25.952;2024-03-07T07:30:24;18.13;;;6.40;;
71558;SDS011;59382;43.852;25.952;2024-03-07T07:32:52;11.45;;;6.60;;
71558;SDS011;59382;43.852;25.952;2024-03-07T07:35:19;8.27;;;5.63;;
71558;SDS011;59382;43.852;25.952;2024-03-07T07:37:46;10.25;;;5.28;;
71558;SDS011;59382;43.852;25.952;2024-03-07T07:40:13;14.68;;;5.90;;
71558;SDS011;59382;43.852;25.952;2024-03-07T07:42:44;7.93;;;5.35;;
71558;SDS011;59382;43.852;25.952;2024-03-07T07:45:12;17.38;;;5.18;;
71558;SDS011;59382;43.852;25.952;2024-03-07T07:47:42;13.10;;;5.38;;
71558;SDS011;59382;43.852;25.952;2024-03-07T07:50:10;11.15;;;5.55;;
71558;SDS011;59382;43.852;25.952;2024-03-07T07:52:43;16.67;;;5.50;;
71558;SDS011;59382;43.852;25.952;2024-03-07T07:55:11;14.38;;;5.30;;
71558;SDS011;59382;43.852;25.952;2024-03-07T07:57:40;9.07;;;5.75;;
71558;SDS011;59382;43.852;25.952;2024-03-07T08:00:08;12.43;;;5.20;;
71558;SDS011;59382;43.852;25.952;2024-03-07T08:02:35;11.77;;;5.13;;
71558;SDS011;59382;43.852;25.952;2024-03-07T08:05:01;7.93;;;4.93;;
71558;SDS011;59382;43.852;25.952;2024-03-07T08:07:26;10.32;;;5.18;;
71558;SDS011;59382;43.852;25.952;2024-03-07T08:09:52;12.25;;;4.95;;
71558;SDS011;59382;43.852;25.952;2024-03-07T08:12:17;7.07;;;4.65;;
71558;SDS011;59382;43.852;25.952;2024-03-07T08:14:43;11.50;;;5.45;;
71558;SDS011;59382;43.852;25.952;2024-03-07T08:17:10;9.85;;;5.20;;
71558;SDS011;59382;43.852;25.952;2024-03-07T08:19:36;10.30;;;4.88;;
71558;SDS011;59382;43.852;25.952;2024-03-07T08:22:01;11.27;;;5.53;;
71558;SDS011;59382;43.852;25.952;2024-03-07T08:24:27;11.98;;;5.18;;
71558;SDS011;59382;43.852;25.952;2024-03-07T08:26:53;9.80;;;4.72;;
71558;SDS011;59382;43.852;25.952;2024-03-07T08:29:18;11.02;;;5.18;;
71558;SDS011;59382;43.852;25.952;2024-03-07T08:31:44;14.55;;;5.88;;
71558;SDS011;59382;43.852;25.952;2024-03-07T08:34:09;9.38;;;5.10;;
71558;SDS011;59382;43.852;25.952;2024-03-07T08:36:35;9.20;;;4.55;;
71558;SDS011;59382;43.852;25.952;2024-03-07T08:39:03;9.50;;;5.63;;
71558;SDS011;59382;43.852;25.952;2024-03-07T08:41:29;10.73;;;6.47;;
71558;SDS011;59382;43.852;25.952;2024-03-07T08:43:56;9.07;;;5.13;;
71558;SDS011;59382;43.852;25.952;2024-03-07T08:46:23;9.95;;;5.57;;
71558;SDS011;59382;43.852;25.952;2024-03-07T08:48:48;10.43;;;6.20;;
71558;SDS011;59382;43.852;25.952;2024-03-07T08:51:15;15.18;;;6.43;;
71558;SDS011;59382;43.852;25.952;2024-03-07T08:53:41;9.38;;;5.18;;
71558;SDS011;59382;43.852;25.952;2024-03-07T08:56:06;17.60;;;5.82;;
71558;SDS011;59382;43.852;25.952;2024-03-07T08:58:32;11.10;;;5.72;;
71558;SDS011;59382;43.852;25.952;2024-03-07T09:00:57;12.43;;;5.72;;
71558;SDS011;59382;43.852;25.952;2024-03-07T09:03:24;10.05;;;5.85;;
71558;SDS011;59382;43.852;25.952;2024-03-07T09:05:51;12.65;;;5.65;;
71558;SDS011;59382;43.852;25.952;2024-03-07T09:08:17;12.80;;;5.13;;
71558;SDS011;59382;43.852;25.952;2024-03-07T09:10:42;14.82;;;6.28;;
71558;SDS011;59382;43.852;25.952;2024-03-07T09:13:11;17.20;;;5.75;;
71558;SDS011;59382;43.852;25.952;2024-03-07T09:15:37;11.20;;;6.03;;
71558;SDS011;59382;43.852;25.952;2024-03-07T09:18:03;11.77;;;6.25;;
71558;SDS011;59382;43.852;25.952;2024-03-07T09:20:28;8.80;;;4.97;;
71558;SDS011;59382;43.852;25.952;2024-03-07T09:22:56;14.48;;;6.13;;
71558;SDS011;59382;43.852;25.952;2024-03-07T09:25:21;13.40;;;6.15;;
71558;SDS011;59382;43.852;25.952;2024-03-07T09:27:48;10.32;;;6.07;;
71558;SDS011;59382;43.852;25.952;2024-03-07T09:30:14;13.48;;;5.95;;
71558;SDS011;59382;43.852;25.952;2024-03-07T09:32:44;10.52;;;5.20;;
71558;SDS011;59382;43.852;25.952;2024-03-07T09:35:10;13.88;;;6.05;;
71558;SDS011;59382;43.852;25.952;2024-03-07T09:37:40;9.48;;;5.43;;
71558;SDS011;59382;43.852;25.952;2024-03-07T09:40:08;11.27;;;5.90;;
71558;SDS011;59382;43.852;25.952;2024-03-07T09:42:41;12.93;;;6.20;;
71558;SDS011;59382;43.852;25.952;2024-03-07T09:45:10;12.13;;;6.53;;
71558;SDS011;59382;43.852;25.952;2024-03-07T09:47:46;12.65;;;5.82;;
71558;SDS011;59382;43.852;25.952;2024-03-07T09:50:15;13.10;;;5.55;;
71558;SDS011;59382;43.852;25.952;2024-03-07T09:52:44;10.18;;;5.30;;
71558;SDS011;59382;43.852;25.952;2024-03-07T09:55:11;6.13;;;4.97;;
71558;SDS011;59382;43.852;25.952;2024-03-07T09:57:38;10.50;;;5.60;;
71558;SDS011;59382;43.852;25.952;2024-03-07T10:00:06;10.48;;;6.38;;
71558;SDS011;59382;43.852;25.952;2024-03-07T10:02:38;16.23;;;5.90;;
71558;SDS011;59382;43.852;25.952;2024-03-07T10:05:06;12.38;;;6.10;;
71558;SDS011;59382;43.852;25.952;2024-03-07T10:07:39;9.55;;;5.07;;
71558;SDS011;59382;43.852;25.952;2024-03-07T10:10:05;14.45;;;5.85;;
71558;SDS011;59382;43.852;25.952;2024-03-07T10:12:37;11.68;;;6.13;;
71558;SDS011;59382;43.852;25.952;2024-03-07T10:15:03;16.55;;;6.05;;
71558;SDS011;59382;43.852;25.952;2024-03-07T10:17:37;15.93;;;6.30;;
71558;SDS011;59382;43.852;25.952;2024-03-07T10:20:04;10.43;;;6.00;;
71558;SDS011;59382;43.852;25.952;2024-03-07T10:22:35;16.98;;;7.22;;
71558;SDS011;59382;43.852;25.952;2024-03-07T10:25:03;9.70;;;5.70;;
71558;SDS011;59382;43.852;25.952;2024-03-07T10:27:33;14.73;;;6.93;;
71558;SDS011;59382;43.852;25.952;2024-03-07T10:30:01;10.30;;;5.38;;
71558;SDS011;59382;43.852;25.952;2024-03-07T10:32:27;12.77;;;5.72;;
71558;SDS011;59382;43.852;25.952;2024-03-07T10:34:53;10.20;;;5.35;;
71558;SDS011;59382;43.852;25.952;2024-03-07T10:37:20;12.48;;;4.90;;
71558;SDS011;59382;43.852;25.952;2024-03-07T10:39:51;15.82;;;5.75;;
71558;SDS011;59382;43.852;25.952;2024-03-07T10:42:17;7.78;;;5.07;;
71558;SDS011;59382;43.852;25.952;2024-03-07T10:44:44;12.27;;;5.68;;
71558;SDS011;59382;43.852;25.952;2024-03-07T10:47:15;12.48;;;5.85;;
71558;SDS011;59382;43.852;25.952;2024-03-07T10:55:37;20.33;;;5.40;;
71558;SDS011;59382;43.852;25.952;2024-03-07T11:01:02;14.40;;;6.13;;
71558;SDS011;59382;43.852;25.952;2024-03-07T11:03:34;10.80;;;6.22;;
71558;SDS011;59382;43.852;25.952;2024-03-07T11:06:00;10.55;;;5.55;;
71558;SDS011;59382;43.852;25.952;2024-03-07T11:08:32;16.55;;;6.28;;
71558;SDS011;59382;43.852;25.952;2024-03-07T11:11:00;10.15;;;5.88;;
71558;SDS011;59382;43.852;25.952;2024-03-07T11:13:26;13.70;;;5.53;;
71558;SDS011;59382;43.852;25.952;2024-03-07T11:15:53;15.23;;;6.18;;
71558;SDS011;59382;43.852;25.952;2024-03-07T11:18:24;14.35;;;6.22;;
71558;SDS011;59382;43.852;25.952;2024-03-07T11:20:49;8.75;;;5.20;;
71558;SDS011;59382;43.852;25.952;2024-03-07T11:25:54;12.95;;;6.30;;
71558;SDS011;59382;43.852;25.952;2024-03-07T11:28:27;16.35;;;6.65;;
71558;SDS011;59382;43.852;25.952;2024-03-07T11:30:54;12.07;;;5.10;;
71558;SDS011;59382;43.852;25.952;2024-03-07T11:33:20;14.65;;;6.25;;
71558;SDS011;59382;43.852;25.952;2024-03-07T11:35:49;16.83;;;6.55;;
71558;SDS011;59382;43.852;25.952;2024-03-07T11:38:14;9.25;;;5.50;;
71558;SDS011;59382;43.852;25.952;2024-03-07T11:43:10;13.85;;;5.97;;
71558;SDS011;59382;43.852;25.952;2024-03-07T11:45:37;12.27;;;5.50;;
71558;SDS011;59382;43.852;25.952;2024-03-07T11:48:18;9.85;;;5.28;;
71558;SDS011;59382;43.852;25.952;2024-03-07T11:50:45;12.45;;;5.53;;
71558;SDS011;59382;43.852;25.952;2024-03-07T11:53:11;12.18;;;5.05;;
71558;SDS011;59382;43.852;25.952;2024-03-07T11:55:37;12.38;;;5.45;;
71558;SDS011;59382;43.852;25.952;2024-03-07T11:58:12;11.13;;;5.70;;
71558;SDS011;59382;43.852;25.952;2024-03-07T12:00:41;13.80;;;5.95;;
71558;SDS011;59382;43.852;25.952;2024-03-07T12:03:10;8.48;;;4.88;;
71558;SDS011;59382;43.852;25.952;2024-03-07T12:05:42;10.88;;;4.80;;
71558;SDS011;59382;43.852;25.952;2024-03-07T12:08:09;8.18;;;4.43;;
71558;SDS011;59382;43.852;25.952;2024-03-07T12:10:36;14.27;;;6.15;;
71558;SDS011;59382;43.852;25.952;2024-03-07T12:13:04;11.35;;;5.28;;
71558;SDS011;59382;43.852;25.952;2024-03-07T12:15:30;12.02;;;5.30;;
71558;SDS011;59382;43.852;25.952;2024-03-07T12:17:57;12.15;;;5.57;;
71558;SDS011;59382;43.852;25.952;2024-03-07T12:20:22;10.30;;;4.82;;
71558;SDS011;59382;43.852;25.952;2024-03-07T12:22:59;12.45;;;5.15;;
71558;SDS011;59382;43.852;25.952;2024-03-07T12:25:30;9.18;;;5.18;;
71558;SDS011;59382;43.852;25.952;2024-03-07T12:28:07;14.02;;;5.85;;
71558;SDS011;59382;43.852;25.952;2024-03-07T12:33:11;16.40;;;6.13;;
71558;SDS011;59382;43.852;25.952;2024-03-07T12:35:39;11.07;;;5.93;;
71558;SDS011;59382;43.852;25.952;2024-03-07T12:38:08;10.40;;;5.50;;
71558;SDS011;59382;43.852;25.952;2024-03-07T12:40:40;17.13;;;6.60;;
71558;SDS011;59382;43.852;25.952;2024-03-07T12:43:16;10.98;;;6.03;;
71558;SDS011;59382;43.852;25.952;2024-03-07T12:48:13;10.77;;;6.20;;
71558;SDS011;59382;43.852;25.952;2024-03-07T12:50:40;13.43;;;6.28;;
71558;SDS011;59382;43.852;25.952;2024-03-07T12:53:06;15.10;;;6.15;;
71558;SDS011;59382;43.852;25.952;2024-03-07T12:55:40;11.70;;;5.97;;
71558;SDS011;59382;43.852;25.952;2024-03-07T12:58:09;14.90;;;6.80;;
71558;SDS011;59382;43.852;25.952;2024-03-07T13:00:37;11.20;;;5.88;;
71558;SDS011;59382;43.852;25.952;2024-03-07T13:03:04;13.43;;;5.68;;
71558;SDS011;59382;43.852;25.952;2024-03-07T13:05:30;12.48;;;6.03;;
71558;SDS011;59382;43.852;25.952;2024-03-07T13:07:55;14.55;;;5.47;;
71558;SDS011;59382;43.852;25.952;2024-03-07T13:10:22;10.10;;;6.03;;
71558;SDS011;59382;43.852;25.952;2024-03-07T13:12:49;12.93;;;6.07;;
71558;SDS011;59382;43.852;25.952;2024-03-07T13:15:15;17.17;;;6.22;;
71558;SDS011;59382;43.852;25.952;2024-03-07T13:17:41;10.25;;;5.82;;
71558;SDS011;59382;43.852;25.952;2024-03-07T13:20:11;13.73;;;5.53;;
71558;SDS011;59382;43.852;25.952;2024-03-07T13:22:44;12.95;;;6.82;;
71558;SDS011;59382;43.852;25.952;2024-03-07T13:25:13;12.85;;;6.07;;
71558;SDS011;59382;43.852;25.952;2024-03-07T13:28:01;12.70;;;6.13;;
71558;SDS011;59382;43.852;25.952;2024-03-07T13:30:28;8.82;;;5.10;;
71558;SDS011;59382;43.852;25.952;2024-03-07T13:32:57;13.45;;;6.25;;
71558;SDS011;59382;43.852;25.952;2024-03-07T13:35:24;15.82;;;6.53;;
71558;SDS011;59382;43.852;25.952;2024-03-07T13:37:51;11.60;;;5.85;;
71558;SDS011;59382;43.852;25.952;2024-03-07T13:40:24;11.93;;;6.60;;
71558;SDS011;59382;43.852;25.952;2024-03-07T13:45:21;12.30;;;6.43;;
71558;SDS011;59382;43.852;25.952;2024-03-07T13:47:48;19.17;;;7.03;;
71558;SDS011;59382;43.852;25.952;2024-03-07T13:50:15;12.73;;;6.60;;
71558;SDS011;59382;43.852;25.952;2024-03-07T13:52:44;11.52;;;5.97;;
71558;SDS011;59382;43.852;25.952;2024-03-07T13:55:33;16.95;;;6.53;;
71558;SDS011;59382;43.852;25.952;2024-03-07T13:58:12;14.18;;;7.10;;
71558;SDS011;59382;43.852;25.952;2024-03-07T14:00:53;23.00;;;8.05;;
71558;SDS011;59382;43.852;25.952;2024-03-07T14:06:10;13.85;;;7.03;;
71558;SDS011;59382;43.852;25.952;2024-03-07T14:09:07;17.27;;;8.45;;
71558;SDS011;59382;43.852;25.952;2024-03-07T14:20:50;16.02;;;7.25;;
71558;SDS011;59382;43.852;25.952;2024-03-07T14:31:47;14.15;;;8.07;;
71558;SDS011;59382;43.852;25.952;2024-03-07T14:36:57;15.13;;;7.07;;
71558;SDS011;59382;43.852;25.952;2024-03-07T14:39:34;12.90;;;7.28;;
71558;SDS011;59382;43.852;25.952;2024-03-07T14:42:03;14.57;;;7.53;;
71558;SDS011;59382;43.852;25.952;2024-03-07T14:44:36;15.30;;;6.60;;
71558;SDS011;59382;43.852;25.952;2024-03-07T14:47:05;20.73;;;7.00;;
71558;SDS011;59382;43.852;25.952;2024-03-07T14:49:33;14.65;;;7.32;;
71558;SDS011;59382;43.852;25.952;2024-03-07T14:52:00;10.85;;;6.85;;
71558;SDS011;59382;43.852;25.952;2024-03-07T14:54:28;14.30;;;7.57;;
71558;SDS011;59382;43.852;25.952;2024-03-07T14:56:54;14.43;;;7.55;;
71558;SDS011;59382;43.852;25.952;2024-03-07T14:59:20;11.60;;;6.20;;
71558;SDS011;59382;43.852;25.952;2024-03-07T15:01:46;10.45;;;6.43;;
71558;SDS011;59382;43.852;25.952;2024-03-07T15:04:12;16.45;;;7.20;;
71558;SDS011;59382;43.852;25.952;2024-03-07T15:06:39;20.23;;;7.32;;
71558;SDS011;59382;43.852;25.952;2024-03-07T15:09:05;10.48;;;7.43;;
71558;SDS011;59382;43.852;25.952;2024-03-07T15:11:37;14.57;;;7.18;;